createdAt,value
2023-09-17T00:01:20.689Z,5.75
2023-09-17T00:03:47.930Z,5.57
2023-09-17T00:06:14.777Z,5.18
2023-09-17T00:08:41.758Z,5.47
2023-09-17T00:11:08.963Z,5.13
2023-09-17T00:13:36.706Z,4.85
2023-09-17T00:16:03.783Z,5.72
2023-09-17T00:18:31.079Z,5.60
2023-09-17T00:20:58.312Z,6.30
2023-09-17T00:23:25.245Z,7.47
2023-09-17T00:25:52.484Z,7.82
2023-09-17T00:28:19.545Z,7.55
2023-09-17T00:30:46.718Z,6.47
2023-09-17T00:33:13.787Z,5.68
2023-09-17T00:35:41.135Z,5.45
2023-09-17T00:38:08.105Z,5.15
2023-09-17T00:40:38.635Z,5.40
2023-09-17T00:43:05.670Z,5.63
2023-09-17T00:45:33.156Z,5.30
2023-09-17T00:48:01.947Z,5.50
2023-09-17T00:50:29.313Z,5.90
2023-09-17T00:52:56.414Z,5.78
2023-09-17T00:55:23.746Z,5.10
2023-09-17T00:57:51.544Z,5.43
2023-09-17T01:00:22.344Z,5.63
2023-09-17T01:02:50.040Z,5.28
2023-09-17T01:05:18.113Z,5.22
2023-09-17T01:07:45.851Z,4.70
2023-09-17T01:10:12.984Z,5.07
2023-09-17T01:12:41.167Z,4.85
2023-09-17T01:15:09.579Z,5.80
2023-09-17T01:17:36.875Z,5.97
2023-09-17T01:20:23.878Z,6.25
2023-09-17T01:22:57.111Z,6.25
2023-09-17T01:25:32.868Z,5.53
2023-09-17T01:28:02.144Z,6.38
2023-09-17T01:30:29.214Z,6.05
2023-09-17T01:32:56.224Z,6.32
2023-09-17T01:35:23.475Z,6.82
2023-09-17T01:37:56.125Z,6.50
2023-09-17T01:40:24.525Z,5.82
2023-09-17T01:42:53.222Z,6.03
2023-09-17T01:45:21.862Z,5.32
2023-09-17T01:47:50.354Z,5.72
2023-09-17T01:50:18.354Z,5.28
2023-09-17T01:52:45.740Z,4.82
2023-09-17T01:55:13.730Z,5.50
2023-09-17T01:57:43.549Z,5.30
2023-09-17T02:00:22.017Z,5.50
2023-09-17T02:02:51.787Z,6.32
2023-09-17T02:05:21.746Z,5.95
2023-09-17T02:07:49.399Z,5.60
2023-09-17T02:10:16.466Z,5.85
2023-09-17T02:12:43.607Z,5.78
2023-09-17T02:15:13.447Z,4.63
2023-09-17T02:17:41.328Z,5.03
2023-09-17T02:20:09.656Z,5.43
2023-09-17T02:22:36.559Z,5.00
2023-09-17T02:25:05.069Z,4.38
2023-09-17T02:27:32.018Z,4.72
2023-09-17T02:29:59.102Z,4.57
2023-09-17T02:32:26.190Z,5.18
2023-09-17T02:34:53.195Z,4.30
2023-09-17T02:37:20.426Z,4.40
2023-09-17T02:39:47.392Z,5.00
2023-09-17T02:42:14.437Z,5.43
2023-09-17T02:44:41.627Z,4.50
2023-09-17T02:47:08.644Z,5.15
2023-09-17T02:49:35.660Z,4.72
2023-09-17T02:52:02.632Z,5.03
2023-09-17T02:54:29.518Z,4.28
2023-09-17T02:56:56.368Z,5.50
2023-09-17T02:59:23.317Z,5.85
2023-09-17T03:01:50.175Z,5.85
2023-09-17T03:04:17.297Z,5.13
2023-09-17T03:06:44.334Z,5.32
2023-09-17T03:09:12.628Z,5.45
2023-09-17T03:11:40.888Z,5.03
2023-09-17T03:14:07.947Z,4.78
2023-09-17T03:16:35.409Z,4.80
2023-09-17T03:19:02.483Z,5.72
2023-09-17T03:21:29.839Z,5.18
2023-09-17T03:23:56.963Z,4.97
2023-09-17T03:26:25.442Z,4.65
2023-09-17T03:28:52.494Z,4.93
2023-09-17T03:31:19.665Z,4.53
2023-09-17T03:33:46.529Z,4.78
2023-09-17T03:36:14.138Z,4.72
2023-09-17T03:38:41.164Z,4.78
2023-09-17T03:41:08.222Z,4.78
2023-09-17T03:43:36.363Z,4.95
2023-09-17T03:46:07.421Z,4.85
2023-09-17T03:48:34.348Z,4.65
2023-09-17T03:51:01.991Z,4.97
2023-09-17T03:53:31.276Z,4.78
2023-09-17T03:55:58.278Z,4.90
2023-09-17T03:58:25.609Z,4.85
2023-09-17T04:00:52.437Z,5.57
2023-09-17T04:03:20.610Z,5.05
2023-09-17T04:05:52.016Z,5.00
2023-09-17T04:08:19.107Z,5.32
2023-09-17T04:10:46.085Z,5.13
2023-09-17T04:13:13.904Z,4.97
2023-09-17T04:15:40.861Z,5.50
2023-09-17T04:18:07.729Z,6.15
2023-09-17T04:20:35.423Z,5.25
2023-09-17T04:23:03.842Z,4.80
2023-09-17T04:25:31.177Z,4.88
2023-09-17T04:27:58.064Z,4.70
2023-09-17T04:30:25.062Z,4.75
2023-09-17T04:32:54.245Z,4.78
2023-09-17T04:35:21.284Z,5.13
2023-09-17T04:37:50.105Z,5.47
2023-09-17T04:40:19.572Z,4.95
2023-09-17T04:42:49.474Z,4.60
2023-09-17T04:45:39.264Z,4.80
2023-09-17T04:48:07.270Z,4.07
2023-09-17T04:50:35.333Z,4.82
2023-09-17T04:53:02.660Z,5.53
2023-09-17T04:55:29.669Z,4.95
2023-09-17T04:57:56.747Z,5.85
2023-09-17T05:00:23.661Z,5.38
2023-09-17T05:02:51.237Z,5.55
2023-09-17T05:05:22.399Z,5.25
2023-09-17T05:07:52.361Z,5.40
2023-09-17T05:10:19.634Z,5.57
2023-09-17T05:12:46.591Z,5.20
2023-09-17T05:15:13.737Z,5.63
2023-09-17T05:17:41.019Z,5.03
2023-09-17T05:20:08.699Z,5.18
2023-09-17T05:22:36.652Z,5.63
2023-09-17T05:25:05.640Z,5.47
2023-09-17T05:27:32.785Z,5.70
2023-09-17T05:30:01.741Z,5.82
2023-09-17T05:32:29.435Z,5.50
2023-09-17T05:35:01.212Z,6.07
2023-09-17T05:37:29.100Z,5.82
2023-09-17T05:39:56.362Z,6.15
2023-09-17T05:42:23.273Z,5.32
2023-09-17T05:44:50.273Z,5.65
2023-09-17T05:47:17.139Z,5.93
2023-09-17T05:49:44.858Z,5.35
2023-09-17T05:52:11.759Z,5.47
2023-09-17T05:54:38.644Z,6.03
2023-09-17T05:57:05.520Z,6.38
2023-09-17T05:59:32.808Z,5.75
2023-09-17T06:02:00.626Z,4.97
2023-09-17T06:04:28.889Z,5.00
2023-09-17T06:06:56.002Z,5.40
2023-09-17T06:09:23.098Z,5.50
2023-09-17T06:11:51.611Z,5.55
2023-09-17T06:14:18.817Z,6.43
2023-09-17T06:16:56.653Z,5.80
2023-09-17T06:19:25.645Z,6.32
2023-09-17T06:21:54.022Z,6.05
2023-09-17T06:24:20.923Z,6.50
2023-09-17T06:26:47.970Z,7.38
2023-09-17T06:29:14.898Z,6.43
2023-09-17T06:31:42.097Z,6.45
2023-09-17T06:34:10.874Z,6.38
2023-09-17T06:36:38.437Z,7.28
2023-09-17T06:39:07.233Z,6.53
2023-09-17T06:41:37.393Z,7.20
2023-09-17T06:44:06.187Z,5.53
2023-09-17T06:46:33.512Z,5.75
2023-09-17T06:49:00.435Z,5.78
2023-09-17T06:51:27.382Z,6.18
2023-09-17T06:53:54.492Z,6.43
2023-09-17T06:56:24.780Z,6.78
2023-09-17T06:58:51.963Z,7.05
2023-09-17T07:01:20.355Z,6.22
2023-09-17T07:03:48.062Z,6.20
2023-09-17T07:06:14.880Z,6.45
2023-09-17T07:08:41.686Z,5.95
2023-09-17T07:11:08.541Z,5.93
2023-09-17T07:13:35.539Z,5.50
2023-09-17T07:16:02.495Z,5.38
2023-09-17T07:18:31.584Z,6.15
2023-09-17T07:20:59.472Z,5.47
2023-09-17T07:23:26.626Z,4.75
2023-09-17T07:25:53.561Z,4.50
2023-09-17T07:28:21.830Z,5.43
2023-09-17T07:30:54.662Z,5.80
2023-09-17T07:33:21.468Z,5.70
2023-09-17T07:35:49.226Z,5.63
2023-09-17T07:38:17.144Z,5.38
2023-09-17T07:40:44.168Z,5.45
2023-09-17T07:43:10.988Z,6.68
2023-09-17T07:45:38.053Z,5.70
2023-09-17T07:48:05.081Z,6.72
2023-09-17T07:50:32.050Z,5.80
2023-09-17T07:53:00.527Z,6.53
2023-09-17T07:55:27.669Z,5.18
2023-09-17T07:57:54.590Z,5.50
2023-09-17T08:00:22.606Z,5.53
2023-09-17T08:02:50.503Z,5.03
2023-09-17T08:05:18.753Z,4.88
2023-09-17T08:07:46.991Z,5.20
2023-09-17T08:10:15.206Z,4.93
2023-09-17T08:12:42.116Z,5.40
2023-09-17T08:15:09.265Z,5.18
2023-09-17T08:17:36.240Z,5.03
2023-09-17T08:20:04.076Z,4.65
2023-09-17T08:22:31.158Z,5.05
2023-09-17T08:24:58.074Z,4.18
2023-09-17T08:27:24.963Z,5.05
2023-09-17T08:29:51.991Z,4.95
2023-09-17T08:32:19.527Z,6.00
2023-09-17T08:34:46.520Z,4.97
2023-09-17T08:37:13.571Z,4.22
2023-09-17T08:39:40.526Z,2.83
2023-09-17T08:42:08.392Z,3.65
2023-09-17T08:44:37.435Z,3.15
2023-09-17T08:47:04.955Z,3.13
2023-09-17T08:49:32.008Z,3.65
2023-09-17T08:52:04.442Z,3.70
2023-09-17T08:54:42.660Z,3.67
2023-09-17T08:57:13.404Z,3.47
2023-09-17T08:59:44.499Z,3.00
2023-09-17T09:02:22.730Z,3.25
2023-09-17T09:04:52.473Z,3.50
2023-09-17T09:07:23.982Z,3.20
2023-09-17T09:09:53.826Z,3.15
2023-09-17T09:12:22.085Z,3.05
2023-09-17T09:14:49.545Z,4.00
2023-09-17T09:17:16.609Z,3.30
2023-09-17T09:19:43.923Z,3.15
2023-09-17T09:22:10.990Z,3.25
2023-09-17T09:24:47.664Z,3.65
2023-09-17T09:27:14.783Z,3.40
2023-09-17T09:29:44.646Z,3.40
2023-09-17T09:32:13.022Z,4.18
2023-09-17T09:34:42.514Z,3.88
2023-09-17T09:37:10.350Z,4.32
2023-09-17T09:39:37.986Z,4.35
2023-09-17T09:42:10.020Z,4.78
2023-09-17T09:44:37.327Z,4.22
2023-09-17T09:47:05.869Z,4.22
2023-09-17T09:49:43.890Z,3.92
2023-09-17T09:52:15.430Z,4.20
2023-09-17T09:54:43.694Z,3.90
2023-09-17T09:57:14.821Z,4.25
2023-09-17T09:59:45.457Z,4.50
2023-09-17T10:02:14.824Z,4.57
2023-09-17T10:04:42.158Z,4.40
2023-09-17T10:07:09.678Z,3.83
2023-09-17T10:09:37.589Z,4.40
2023-09-17T10:12:05.370Z,3.97
2023-09-17T10:14:39.038Z,3.90
2023-09-17T10:17:11.574Z,3.65
2023-09-17T10:19:39.494Z,3.50
2023-09-17T10:22:13.034Z,3.28
2023-09-17T10:24:40.653Z,3.20
2023-09-17T10:27:10.202Z,3.42
2023-09-17T10:29:39.568Z,3.33
2023-09-17T10:32:07.140Z,3.70
2023-09-17T10:34:36.842Z,3.75
2023-09-17T10:37:05.069Z,3.72
2023-09-17T10:39:37.874Z,3.05
2023-09-17T10:42:07.427Z,3.42
2023-09-17T10:44:38.154Z,3.92
2023-09-17T10:47:12.758Z,3.78
2023-09-17T10:49:40.315Z,3.67
2023-09-17T10:52:09.272Z,3.75
2023-09-17T10:54:36.588Z,4.25
2023-09-17T10:57:17.225Z,4.93
2023-09-17T10:59:45.659Z,4.00
2023-09-17T11:02:15.221Z,4.30
2023-09-17T11:04:43.892Z,4.63
2023-09-17T11:07:14.918Z,4.18
2023-09-17T11:09:43.429Z,4.28
2023-09-17T11:12:10.780Z,3.58
2023-09-17T11:14:39.105Z,3.80
2023-09-17T11:17:10.628Z,3.92
2023-09-17T11:19:37.568Z,3.55
2023-09-17T11:22:05.200Z,4.10
2023-09-17T11:24:33.695Z,4.10
2023-09-17T11:27:05.886Z,2.88
2023-09-17T11:29:41.044Z,3.53
2023-09-17T11:32:08.732Z,3.22
2023-09-17T11:34:38.032Z,3.38
2023-09-17T11:37:06.353Z,3.53
2023-09-17T11:39:35.567Z,3.70
2023-09-17T11:42:04.913Z,3.55
2023-09-17T11:44:34.775Z,3.50
2023-09-17T11:47:07.543Z,3.10
2023-09-17T11:49:35.523Z,2.97
2023-09-17T11:52:11.834Z,3.03
2023-09-17T11:54:52.331Z,3.17
2023-09-17T11:57:28.547Z,2.90
2023-09-17T12:02:28.611Z,2.60
2023-09-17T12:04:56.208Z,2.70
2023-09-17T12:07:23.940Z,3.40
2023-09-17T12:10:02.557Z,3.20
2023-09-17T12:12:36.363Z,2.63
2023-09-17T12:15:10.935Z,2.72
2023-09-17T12:17:45.033Z,2.38
2023-09-17T12:20:32.807Z,3.20
2023-09-17T12:23:04.554Z,3.33
2023-09-17T12:25:44.394Z,2.80
2023-09-17T12:28:12.605Z,3.95
2023-09-17T12:30:40.075Z,3.70
2023-09-17T12:33:07.516Z,3.38
2023-09-17T12:35:36.343Z,2.45
2023-09-17T12:38:04.818Z,3.10
2023-09-17T12:40:34.325Z,2.92
2023-09-17T12:43:09.512Z,2.85
2023-09-17T12:45:38.996Z,3.40
2023-09-17T12:48:09.240Z,3.28
2023-09-17T12:50:41.728Z,3.13
2023-09-17T12:53:11.142Z,2.90
2023-09-17T12:55:38.346Z,2.88
2023-09-17T12:58:10.884Z,2.70
2023-09-17T13:00:39.539Z,2.80
2023-09-17T13:03:13.715Z,2.88
2023-09-17T13:05:42.736Z,2.80
2023-09-17T13:08:10.592Z,2.78
2023-09-17T13:10:43.725Z,2.25
2023-09-17T13:13:20.525Z,2.25
2023-09-17T13:15:47.840Z,2.10
2023-09-17T13:18:18.783Z,2.17
2023-09-17T13:20:49.219Z,2.13
2023-09-17T13:23:17.767Z,2.28
2023-09-17T13:25:46.100Z,2.10
2023-09-17T13:28:15.990Z,2.45
2023-09-17T13:33:15.119Z,1.98
2023-09-17T13:35:44.627Z,2.38
2023-09-17T13:38:14.094Z,2.25
2023-09-17T13:40:52.860Z,2.15
2023-09-17T13:43:20.203Z,2.42
2023-09-17T13:45:58.020Z,2.13
2023-09-17T13:48:26.142Z,2.42
2023-09-17T13:50:56.496Z,2.03
2023-09-17T13:53:24.542Z,2.30
2023-09-17T13:55:51.685Z,2.65
2023-09-17T13:58:19.650Z,2.35
2023-09-17T14:00:46.637Z,2.67
2023-09-17T14:03:16.803Z,2.42
2023-09-17T14:05:44.620Z,2.10
2023-09-17T14:08:13.212Z,2.47
2023-09-17T14:10:43.020Z,2.20
2023-09-17T14:15:38.166Z,1.92
2023-09-17T14:18:05.576Z,1.98
2023-09-17T14:20:32.866Z,1.95
2023-09-17T14:23:00.343Z,2.08
2023-09-17T14:25:27.922Z,2.00
2023-09-17T14:27:55.563Z,2.22
2023-09-17T14:30:23.303Z,2.80
2023-09-17T14:32:52.443Z,2.35
2023-09-17T14:35:19.768Z,2.00
2023-09-17T14:37:48.172Z,2.00
2023-09-17T14:40:17.234Z,2.05
2023-09-17T14:42:44.571Z,2.10
2023-09-17T14:45:11.700Z,2.50
2023-09-17T14:47:41.915Z,2.20
2023-09-17T14:50:13.114Z,1.98
2023-09-17T14:52:43.315Z,2.08
2023-09-17T14:55:15.833Z,2.45
2023-09-17T14:57:43.510Z,2.70
2023-09-17T15:00:15.971Z,1.90
2023-09-17T15:02:43.892Z,1.30
2023-09-17T15:05:12.404Z,1.27
2023-09-17T15:07:43.735Z,2.00
2023-09-17T15:10:11.288Z,0.73
2023-09-17T15:12:38.868Z,1.10
2023-09-17T15:15:07.563Z,0.75
2023-09-17T15:17:36.794Z,0.93
2023-09-17T15:20:05.712Z,0.60
2023-09-17T15:22:34.750Z,0.98
2023-09-17T15:25:01.715Z,0.60
2023-09-17T15:27:29.249Z,0.70
2023-09-17T15:29:56.192Z,1.00
2023-09-17T15:32:24.152Z,0.90
2023-09-17T15:34:51.564Z,0.90
2023-09-17T15:37:18.648Z,0.77
2023-09-17T15:39:45.928Z,1.10
2023-09-17T15:42:15.534Z,1.10
2023-09-17T15:44:42.859Z,1.10
2023-09-17T15:47:10.132Z,0.52
2023-09-17T15:49:37.000Z,1.05
2023-09-17T15:52:05.867Z,0.88
2023-09-17T15:54:33.248Z,1.17
2023-09-17T15:57:00.392Z,0.82
2023-09-17T15:59:27.300Z,0.93
2023-09-17T16:01:54.246Z,2.03
2023-09-17T16:04:21.628Z,0.73
2023-09-17T16:06:48.816Z,1.10
2023-09-17T16:09:26.325Z,1.08
2023-09-17T16:11:55.734Z,1.10
2023-09-17T16:14:22.589Z,1.23
2023-09-17T16:16:49.457Z,1.65
2023-09-17T16:19:16.225Z,2.67
2023-09-17T16:21:43.140Z,1.58
2023-09-17T16:24:10.638Z,2.08
2023-09-17T16:26:39.721Z,2.17
2023-09-17T16:29:07.682Z,2.20
2023-09-17T16:31:34.640Z,2.53
2023-09-17T16:34:01.520Z,2.08
2023-09-17T16:36:28.655Z,2.40
2023-09-17T16:38:57.676Z,1.80
2023-09-17T16:41:24.700Z,1.52
2023-09-17T16:43:51.822Z,1.58
2023-09-17T16:46:19.104Z,1.70
2023-09-17T16:48:48.215Z,1.50
2023-09-17T16:51:16.827Z,1.52
2023-09-17T16:53:43.954Z,1.70
2023-09-17T16:56:13.494Z,1.50
2023-09-17T16:58:43.346Z,1.33
2023-09-17T17:01:10.260Z,1.20
2023-09-17T17:03:37.117Z,1.35
2023-09-17T17:06:04.150Z,1.30
2023-09-17T17:08:30.975Z,1.35
2023-09-17T17:10:58.650Z,1.30
2023-09-17T17:13:25.830Z,1.30
2023-09-17T17:15:52.652Z,1.42
2023-09-17T17:18:19.454Z,1.30
2023-09-17T17:20:46.401Z,1.33
2023-09-17T17:23:15.043Z,1.40
2023-09-17T17:25:45.262Z,1.48
2023-09-17T17:28:12.303Z,1.48
2023-09-17T17:30:39.143Z,1.63
2023-09-17T17:33:06.265Z,1.90
2023-09-17T17:35:36.513Z,1.70
2023-09-17T17:38:06.551Z,1.90
2023-09-17T17:40:33.610Z,1.48
2023-09-17T17:43:00.495Z,1.83
2023-09-17T17:45:27.455Z,1.75
2023-09-17T17:47:55.870Z,1.73
2023-09-17T17:50:23.287Z,1.95
2023-09-17T17:52:50.193Z,2.28
2023-09-17T17:55:17.234Z,2.55
2023-09-17T17:57:44.181Z,1.98
2023-09-17T18:00:11.911Z,2.53
2023-09-17T18:02:42.887Z,2.22
2023-09-17T18:05:10.853Z,2.63
2023-09-17T18:07:39.594Z,2.47
2023-09-17T18:10:08.598Z,2.70
2023-09-17T18:12:35.760Z,2.60
2023-09-17T18:15:06.245Z,2.50
2023-09-17T18:17:34.573Z,2.72
2023-09-17T18:20:04.762Z,3.03
2023-09-17T18:22:31.928Z,3.05
2023-09-17T18:25:00.158Z,3.13
2023-09-17T18:27:28.629Z,2.97
2023-09-17T18:29:58.167Z,3.45
2023-09-17T18:32:27.555Z,3.10
2023-09-17T18:34:54.824Z,3.17
2023-09-17T18:37:22.173Z,3.42
2023-09-17T18:39:49.736Z,3.38
2023-09-17T18:42:18.946Z,3.70
2023-09-17T18:44:49.625Z,3.25
2023-09-17T18:47:21.661Z,3.20
2023-09-17T18:50:00.097Z,3.35
2023-09-17T18:52:40.244Z,3.83
2023-09-17T18:55:07.905Z,3.97
2023-09-17T18:57:35.013Z,3.55
2023-09-17T19:00:05.914Z,4.18
2023-09-17T19:02:33.239Z,3.45
2023-09-17T19:05:07.325Z,4.07
2023-09-17T19:07:35.522Z,3.28
2023-09-17T19:10:07.429Z,3.25
2023-09-17T19:12:34.549Z,3.50
2023-09-17T19:15:01.790Z,3.78
2023-09-17T19:17:40.651Z,3.53
2023-09-17T19:20:08.901Z,3.95
2023-09-17T19:22:38.872Z,4.32
2023-09-17T19:25:16.791Z,4.22
2023-09-17T19:27:46.187Z,3.78
2023-09-17T19:30:16.149Z,3.63
2023-09-17T19:32:56.842Z,3.70
2023-09-17T19:35:28.591Z,4.80
2023-09-17T19:38:03.612Z,4.18
2023-09-17T19:40:33.125Z,3.70
2023-09-17T19:43:00.291Z,3.65
2023-09-17T19:45:28.047Z,2.85
2023-09-17T19:47:58.730Z,2.22
2023-09-17T19:50:25.952Z,2.40
2023-09-17T19:53:00.807Z,2.50
2023-09-17T19:55:28.195Z,2.58
2023-09-17T19:57:55.575Z,2.47
2023-09-17T20:00:22.897Z,1.83
2023-09-17T20:03:05.272Z,1.65
2023-09-17T20:05:46.273Z,1.55
2023-09-17T20:08:15.921Z,1.20
2023-09-17T20:11:00.461Z,1.75
2023-09-17T20:13:29.982Z,0.95
2023-09-17T20:16:00.150Z,1.30
2023-09-17T20:18:28.738Z,1.42
2023-09-17T20:20:57.674Z,1.38
2023-09-17T20:23:26.923Z,1.98
2023-09-17T20:25:54.045Z,2.03
2023-09-17T20:28:21.250Z,1.70
2023-09-17T20:30:52.376Z,1.63
2023-09-17T20:33:22.374Z,1.85
2023-09-17T20:35:54.707Z,2.25
2023-09-17T20:38:26.210Z,1.70
2023-09-17T20:41:03.654Z,1.50
2023-09-17T20:43:42.630Z,1.80
2023-09-17T20:46:12.946Z,1.50
2023-09-17T20:48:50.777Z,2.13
2023-09-17T20:51:31.558Z,2.15
2023-09-17T20:54:02.931Z,2.28
2023-09-17T20:56:38.784Z,1.88
2023-09-17T20:59:07.345Z,1.70
2023-09-17T21:01:36.764Z,1.73
2023-09-17T21:04:06.308Z,1.67
2023-09-17T21:06:33.492Z,1.88
2023-09-17T21:09:05.166Z,1.85
2023-09-17T21:11:32.252Z,1.90
2023-09-17T21:14:07.847Z,1.95
2023-09-17T21:16:34.968Z,2.03
2023-09-17T21:19:02.302Z,1.90
2023-09-17T21:21:35.036Z,1.80
2023-09-17T21:24:04.161Z,2.15
2023-09-17T21:26:34.131Z,1.95
2023-09-17T21:29:04.951Z,2.20
2023-09-17T21:31:36.793Z,1.85
2023-09-17T21:34:04.442Z,1.58
2023-09-17T21:36:35.980Z,1.65
2023-09-17T21:39:03.950Z,2.00
2023-09-17T21:41:32.762Z,2.13
2023-09-17T21:44:06.405Z,1.90
2023-09-17T21:46:41.921Z,1.85
2023-09-17T21:49:22.857Z,1.83
2023-09-17T21:51:55.708Z,1.48
2023-09-17T21:54:25.312Z,1.70
2023-09-17T21:56:58.117Z,1.60
2023-09-17T21:59:30.723Z,1.73
2023-09-17T22:02:00.776Z,1.48
2023-09-17T22:04:32.324Z,1.42
2023-09-17T22:07:00.492Z,1.80
2023-09-17T22:09:30.908Z,1.65
2023-09-17T22:12:03.928Z,1.67
2023-09-17T22:14:43.577Z,1.98
2023-09-17T22:17:23.460Z,1.95
2023-09-17T22:19:57.148Z,1.50
2023-09-17T22:22:25.616Z,1.88
2023-09-17T22:25:03.785Z,2.10
2023-09-17T22:27:36.105Z,1.42
2023-09-17T22:30:05.988Z,1.42
2023-09-17T22:32:33.503Z,1.48
2023-09-17T22:35:14.724Z,1.55
2023-09-17T22:37:49.233Z,1.63
2023-09-17T22:40:16.653Z,1.70
2023-09-17T22:43:00.527Z,1.80
2023-09-17T22:45:39.542Z,1.58
2023-09-17T22:48:11.086Z,1.42
2023-09-17T22:50:41.474Z,1.40
2023-09-17T22:53:19.638Z,1.52
2023-09-17T22:56:01.569Z,1.63
2023-09-17T22:58:30.503Z,1.75
2023-09-17T23:01:11.716Z,1.92
2023-09-17T23:03:40.297Z,1.63
2023-09-17T23:06:10.024Z,1.85
2023-09-17T23:08:46.562Z,1.20
2023-09-17T23:11:15.634Z,1.30
2023-09-17T23:13:49.191Z,1.30
2023-09-17T23:16:16.756Z,1.63
2023-09-17T23:18:51.702Z,1.60
2023-09-17T23:21:32.035Z,1.27
2023-09-17T23:24:01.599Z,1.50
2023-09-17T23:26:40.359Z,1.25
2023-09-17T23:29:13.784Z,1.58
2023-09-17T23:31:44.132Z,1.35
2023-09-17T23:34:12.492Z,1.35
2023-09-17T23:36:40.888Z,1.02
2023-09-17T23:39:13.973Z,1.33
2023-09-17T23:41:44.138Z,1.05
2023-09-17T23:44:13.468Z,1.23
2023-09-17T23:46:41.101Z,1.75
2023-09-17T23:49:10.933Z,1.13
2023-09-17T23:51:40.828Z,1.30
2023-09-17T23:54:15.456Z,1.38
2023-09-17T23:56:45.104Z,1.35
2023-09-17T23:59:33.606Z,1.55
